createdAt,value
2022-12-27T00:00:21.046Z,4.10
2022-12-27T00:02:53.520Z,7.10
2022-12-27T00:05:25.823Z,7.15
2022-12-27T00:07:58.922Z,7.20
2022-12-27T00:10:33.069Z,8.77
2022-12-27T00:13:05.588Z,6.78
2022-12-27T00:15:37.898Z,6.05
2022-12-27T00:18:10.260Z,6.88
2022-12-27T00:20:42.930Z,7.25
2022-12-27T00:23:15.955Z,6.50
2022-12-27T00:25:48.238Z,5.13
2022-12-27T00:28:20.633Z,8.27
2022-12-27T00:30:54.502Z,8.45
2022-12-27T00:33:28.715Z,9.32
2022-12-27T00:36:03.450Z,19.08
2022-12-27T00:38:36.494Z,8.13
2022-12-27T00:41:09.080Z,6.57
2022-12-27T00:43:41.470Z,8.27
2022-12-27T00:46:14.248Z,7.40
2022-12-27T00:48:46.925Z,8.52
2022-12-27T00:51:21.536Z,5.57
2022-12-27T00:53:55.174Z,7.32
2022-12-27T00:56:29.945Z,10.95
2022-12-27T00:59:04.101Z,19.25
2022-12-27T01:01:36.855Z,14.90
2022-12-27T01:04:12.804Z,13.15
2022-12-27T01:06:45.116Z,8.90
2022-12-27T01:09:18.119Z,8.30
2022-12-27T01:11:50.435Z,4.68
2022-12-27T01:14:22.846Z,6.88
2022-12-27T01:16:55.157Z,7.03
2022-12-27T01:19:27.592Z,7.55
2022-12-27T01:22:00.050Z,7.25
2022-12-27T01:24:34.151Z,10.35
2022-12-27T01:27:06.455Z,10.75
2022-12-27T01:29:38.893Z,14.32
2022-12-27T01:32:11.198Z,6.70
2022-12-27T01:34:43.555Z,7.20
2022-12-27T01:37:15.823Z,6.28
2022-12-27T01:39:48.850Z,7.78
2022-12-27T01:42:39.382Z,5.88
2022-12-27T01:45:14.956Z,4.47
2022-12-27T01:47:53.118Z,5.55
2022-12-27T01:50:31.727Z,9.07
2022-12-27T01:53:09.083Z,9.30
2022-12-27T01:55:50.107Z,8.20
2022-12-27T01:58:26.526Z,6.38
2022-12-27T02:00:59.312Z,5.13
2022-12-27T02:03:34.658Z,5.45
2022-12-27T02:06:09.425Z,6.40
2022-12-27T02:08:52.651Z,9.55
2022-12-27T02:11:48.007Z,13.48
2022-12-27T02:14:27.663Z,7.30
2022-12-27T02:17:04.848Z,13.43
2022-12-27T02:19:51.988Z,8.48
2022-12-27T02:23:23.486Z,5.47
2022-12-27T02:26:27.618Z,4.05
2022-12-27T02:29:11.118Z,4.47
2022-12-27T02:31:51.322Z,8.60
2022-12-27T02:34:25.932Z,8.55
2022-12-27T02:37:03.656Z,7.43
2022-12-27T02:39:39.709Z,11.60
2022-12-27T02:42:31.472Z,5.35
2022-12-27T02:45:47.029Z,11.75
2022-12-27T02:48:37.708Z,9.00
2022-12-27T02:51:49.279Z,12.48
2022-12-27T02:54:39.417Z,17.92
2022-12-27T02:57:31.367Z,8.73
2022-12-27T03:00:27.319Z,9.77
2022-12-27T03:03:30.539Z,7.07
2022-12-27T03:06:42.038Z,8.13
2022-12-27T03:10:20.539Z,10.18
2022-12-27T03:13:17.538Z,8.68
2022-12-27T03:16:08.065Z,15.52
2022-12-27T03:19:08.150Z,6.57
2022-12-27T03:22:17.607Z,11.00
2022-12-27T03:27:43.141Z,6.38
2022-12-27T03:30:36.048Z,7.82
2022-12-27T03:33:15.221Z,9.18
2022-12-27T03:36:07.172Z,19.23
2022-12-27T03:38:47.379Z,8.00
2022-12-27T03:41:44.718Z,7.97
2022-12-27T03:44:26.225Z,8.93
2022-12-27T03:46:59.847Z,9.30
2022-12-27T03:49:39.525Z,8.05
2022-12-27T03:52:17.008Z,9.00
2022-12-27T03:54:51.706Z,14.82
2022-12-27T03:57:26.247Z,7.90
2022-12-27T03:59:59.815Z,9.63
2022-12-27T04:02:32.295Z,9.75
2022-12-27T04:05:06.319Z,10.98
2022-12-27T04:07:38.705Z,13.45
2022-12-27T04:10:30.669Z,12.40
2022-12-27T04:13:21.009Z,8.75
2022-12-27T04:16:11.530Z,9.27
2022-12-27T04:19:02.221Z,6.75
2022-12-27T04:21:53.740Z,8.27
2022-12-27T04:24:44.325Z,6.90
2022-12-27T04:27:34.777Z,13.15
2022-12-27T04:30:26.724Z,7.40
2022-12-27T04:33:17.285Z,8.70
2022-12-27T04:35:50.164Z,15.93
2022-12-27T04:38:23.168Z,10.45
2022-12-27T04:41:13.689Z,9.02
2022-12-27T04:44:04.299Z,12.25
2022-12-27T04:46:54.796Z,10.93
2022-12-27T04:49:45.937Z,12.80
2022-12-27T04:52:39.121Z,11.02
2022-12-27T04:55:17.880Z,9.68
2022-12-27T04:57:51.177Z,7.60
2022-12-27T05:00:58.491Z,9.57
2022-12-27T05:03:33.232Z,10.82
2022-12-27T05:06:06.721Z,13.18
2022-12-27T05:08:57.324Z,16.67
2022-12-27T05:11:48.714Z,8.50
2022-12-27T05:14:21.014Z,8.82
2022-12-27T05:16:53.341Z,7.65
2022-12-27T05:19:25.719Z,5.90
2022-12-27T05:22:16.095Z,9.75
2022-12-27T05:25:06.985Z,7.32
2022-12-27T05:27:40.052Z,4.88
2022-12-27T05:30:12.603Z,6.55
2022-12-27T05:32:44.925Z,6.22
2022-12-27T05:35:17.253Z,8.05
2022-12-27T05:37:54.727Z,7.65
2022-12-27T05:40:27.697Z,11.40
2022-12-27T05:43:01.426Z,10.90
2022-12-27T05:45:33.911Z,8.25
2022-12-27T05:48:06.292Z,12.93
2022-12-27T05:50:38.665Z,15.43
2022-12-27T05:53:17.792Z,9.40
2022-12-27T05:55:54.315Z,8.77
2022-12-27T05:58:28.175Z,16.17
2022-12-27T06:01:01.336Z,21.10
2022-12-27T06:03:33.701Z,17.60
2022-12-27T06:06:08.105Z,15.82
2022-12-27T06:08:41.040Z,18.35
2022-12-27T06:11:15.926Z,21.15
2022-12-27T06:13:51.298Z,21.15
2022-12-27T06:16:23.788Z,26.63
2022-12-27T06:18:56.158Z,24.55
2022-12-27T06:21:28.580Z,22.05
2022-12-27T06:24:00.949Z,24.73
2022-12-27T06:26:33.397Z,30.83
2022-12-27T06:29:06.574Z,21.25
2022-12-27T06:31:39.240Z,14.50
2022-12-27T06:34:11.591Z,20.02
2022-12-27T06:36:49.188Z,15.52
2022-12-27T06:39:21.731Z,18.02
2022-12-27T06:41:55.558Z,21.15
2022-12-27T06:44:28.601Z,20.15
2022-12-27T06:47:01.517Z,23.77
2022-12-27T06:49:33.911Z,17.23
2022-12-27T06:52:06.265Z,22.73
2022-12-27T06:54:38.627Z,28.00
2022-12-27T06:57:10.993Z,45.78
2022-12-27T06:59:46.937Z,75.45
2022-12-27T07:02:22.014Z,66.32
2022-12-27T07:04:54.399Z,54.08
2022-12-27T07:07:26.801Z,56.35
2022-12-27T07:09:59.168Z,34.38
2022-12-27T07:12:36.505Z,40.38
2022-12-27T07:15:10.334Z,25.33
2022-12-27T07:17:42.739Z,30.85
2022-12-27T07:20:15.110Z,62.80
2022-12-27T07:22:47.463Z,31.45
2022-12-27T07:25:19.789Z,37.15
2022-12-27T07:27:52.173Z,38.15
2022-12-27T07:30:25.323Z,36.58
2022-12-27T07:32:57.683Z,38.70
2022-12-27T07:35:30.002Z,28.98
2022-12-27T07:38:02.406Z,24.08
2022-12-27T07:40:36.302Z,20.02
2022-12-27T07:43:08.664Z,48.22
2022-12-27T07:45:41.659Z,37.55
2022-12-27T07:48:14.101Z,37.78
2022-12-27T07:50:54.321Z,35.28
2022-12-27T07:53:26.706Z,49.10
2022-12-27T07:55:59.188Z,18.67
2022-12-27T07:58:35.964Z,21.33
2022-12-27T08:01:10.441Z,29.30
2022-12-27T08:03:43.219Z,35.08
2022-12-27T08:06:21.840Z,46.70
2022-12-27T08:08:55.839Z,53.42
2022-12-27T08:11:29.432Z,69.68
2022-12-27T08:14:01.820Z,66.88
2022-12-27T08:16:34.864Z,61.47
2022-12-27T08:19:08.711Z,64.93
2022-12-27T08:21:41.169Z,56.85
2022-12-27T08:24:13.602Z,47.42
2022-12-27T08:26:45.925Z,48.05
2022-12-27T08:29:18.383Z,46.15
2022-12-27T08:31:51.444Z,29.08
2022-12-27T08:34:23.828Z,30.20
2022-12-27T08:36:56.694Z,23.17
2022-12-27T08:39:29.694Z,20.35
2022-12-27T08:42:02.050Z,19.77
2022-12-27T08:44:35.012Z,20.65
2022-12-27T08:47:07.952Z,19.85
2022-12-27T08:49:40.339Z,12.32
2022-12-27T08:52:12.681Z,15.43
2022-12-27T08:54:45.090Z,16.90
2022-12-27T08:57:17.406Z,13.00
2022-12-27T08:59:49.910Z,10.60
2022-12-27T09:02:22.933Z,11.18
2022-12-27T09:04:55.429Z,12.40
2022-12-27T09:07:27.739Z,14.88
2022-12-27T09:10:00.116Z,13.07
2022-12-27T09:12:33.057Z,18.60
2022-12-27T09:15:06.705Z,18.75
2022-12-27T09:17:40.458Z,23.73
2022-12-27T09:20:12.863Z,24.90
2022-12-27T09:22:45.215Z,20.40
2022-12-27T09:25:17.767Z,18.58
2022-12-27T09:27:50.159Z,16.75
2022-12-27T09:30:22.598Z,14.57
2022-12-27T09:32:57.578Z,22.45
2022-12-27T09:35:30.225Z,16.65
2022-12-27T09:38:04.067Z,14.63
2022-12-27T09:40:37.495Z,19.13
2022-12-27T09:43:22.333Z,18.85
2022-12-27T09:45:59.262Z,18.95
2022-12-27T09:48:35.707Z,20.48
2022-12-27T09:51:15.268Z,14.13
2022-12-27T09:53:57.240Z,17.52
2022-12-27T09:56:54.496Z,17.33
2022-12-27T09:59:31.069Z,13.32
2022-12-27T10:02:08.549Z,21.13
2022-12-27T10:05:18.073Z,17.58
2022-12-27T10:07:45.024Z,13.05
2022-12-27T10:10:26.351Z,8.98
2022-12-27T10:13:21.326Z,9.77
2022-12-27T10:16:09.122Z,11.93
2022-12-27T10:18:54.308Z,7.18
2022-12-27T10:21:29.721Z,3.20
2022-12-27T10:24:12.672Z,2.33
2022-12-27T10:26:44.971Z,3.55
2022-12-27T10:29:21.492Z,5.00
2022-12-27T10:31:53.915Z,3.97
2022-12-27T10:34:26.456Z,4.53
2022-12-27T10:36:59.475Z,4.00
2022-12-27T10:39:35.655Z,1.58
2022-12-27T10:42:15.146Z,15.93
2022-12-27T10:44:47.631Z,9.57
2022-12-27T10:47:25.529Z,6.38
2022-12-27T10:50:08.302Z,5.43
2022-12-27T10:52:43.523Z,3.67
2022-12-27T10:55:33.294Z,3.45
2022-12-27T10:58:36.807Z,2.30
2022-12-27T11:01:16.174Z,3.60
2022-12-27T11:03:48.886Z,4.63
2022-12-27T11:06:24.622Z,6.05
2022-12-27T11:08:57.581Z,5.45
2022-12-27T11:11:30.521Z,4.97
2022-12-27T11:14:12.464Z,7.47
2022-12-27T11:16:45.648Z,5.15
2022-12-27T11:19:23.420Z,6.43
2022-12-27T11:21:56.694Z,5.97
2022-12-27T11:24:30.345Z,4.95
2022-12-27T11:27:03.627Z,11.25
2022-12-27T11:29:37.191Z,13.50
2022-12-27T11:32:09.883Z,13.38
2022-12-27T11:34:48.308Z,5.00
2022-12-27T11:37:24.291Z,4.82
2022-12-27T11:40:13.284Z,5.18
2022-12-27T11:42:51.014Z,4.35
2022-12-27T11:45:28.864Z,2.95
2022-12-27T11:48:07.201Z,4.20
2022-12-27T11:51:03.764Z,2.53
2022-12-27T11:54:05.297Z,4.35
2022-12-27T11:56:40.828Z,5.93
2022-12-27T11:59:34.486Z,2.85
2022-12-27T12:02:28.451Z,5.32
2022-12-27T12:05:27.257Z,3.88
2022-12-27T12:08:26.902Z,2.67
2022-12-27T12:11:10.185Z,4.07
2022-12-27T12:14:00.303Z,7.25
2022-12-27T12:17:11.007Z,4.40
2022-12-27T12:20:04.150Z,5.57
2022-12-27T12:22:50.496Z,2.45
2022-12-27T12:25:49.988Z,3.17
2022-12-27T12:28:59.108Z,2.30
2022-12-27T12:32:00.566Z,2.17
2022-12-27T12:35:05.584Z,5.32
2022-12-27T12:37:57.055Z,3.53
2022-12-27T12:40:51.481Z,4.05
2022-12-27T12:43:44.842Z,4.97
2022-12-27T12:46:27.153Z,5.07
2022-12-27T12:49:18.205Z,10.85
2022-12-27T12:52:03.563Z,5.15
2022-12-27T12:54:54.082Z,5.45
2022-12-27T12:57:41.547Z,4.30
2022-12-27T13:00:36.895Z,5.22
2022-12-27T13:03:51.689Z,2.92
2022-12-27T13:06:45.093Z,4.03
2022-12-27T13:09:29.177Z,2.33
2022-12-27T13:12:08.747Z,3.90
2022-12-27T13:14:55.483Z,2.63
2022-12-27T13:17:38.572Z,7.40
2022-12-27T13:20:32.114Z,3.88
2022-12-27T13:23:17.433Z,3.95
2022-12-27T13:25:58.687Z,7.63
2022-12-27T13:28:42.297Z,7.15
2022-12-27T13:31:29.426Z,4.43
2022-12-27T13:34:20.006Z,3.60
2022-12-27T13:37:09.928Z,3.10
2022-12-27T13:39:57.323Z,2.90
2022-12-27T13:42:54.929Z,5.13
2022-12-27T13:45:44.090Z,4.43
2022-12-27T13:48:39.939Z,2.85
2022-12-27T13:51:36.469Z,4.40
2022-12-27T13:54:32.149Z,4.80
2022-12-27T13:57:25.520Z,3.40
2022-12-27T14:00:09.608Z,4.75
2022-12-27T14:03:21.618Z,4.32
2022-12-27T14:06:17.866Z,4.78
2022-12-27T14:09:29.119Z,3.65
2022-12-27T14:12:26.193Z,3.17
2022-12-27T14:15:02.846Z,4.32
2022-12-27T14:17:43.126Z,6.40
2022-12-27T14:20:30.704Z,6.15
2022-12-27T14:23:21.607Z,7.70
2022-12-27T14:26:40.253Z,3.67
2022-12-27T14:30:02.358Z,4.78
2022-12-27T14:33:18.099Z,5.35
2022-12-27T14:36:11.185Z,5.10
2022-12-27T14:39:19.103Z,6.88
2022-12-27T14:42:17.131Z,7.97
2022-12-27T14:45:33.379Z,52.88
2022-12-27T14:48:39.007Z,15.68
2022-12-27T14:54:58.321Z,4.10
2022-12-27T14:57:38.826Z,3.55
2022-12-27T15:00:15.344Z,4.60
2022-12-27T15:03:13.692Z,4.22
2022-12-27T15:05:57.756Z,6.22
2022-12-27T15:08:45.538Z,3.58
2022-12-27T15:11:35.168Z,9.38
2022-12-27T15:14:22.131Z,18.15
2022-12-27T15:17:08.353Z,14.57
2022-12-27T15:20:09.741Z,11.15
2022-12-27T15:22:55.974Z,18.98
2022-12-27T15:25:43.795Z,17.98
2022-12-27T15:28:22.980Z,19.52
2022-12-27T15:31:03.407Z,16.80
2022-12-27T15:33:46.350Z,21.98
2022-12-27T15:36:35.176Z,14.23
2022-12-27T15:39:47.972Z,17.37
2022-12-27T15:42:52.657Z,27.52
2022-12-27T15:45:39.940Z,21.58
2022-12-27T15:48:57.843Z,32.80
2022-12-27T15:51:36.135Z,18.15
2022-12-27T15:54:36.998Z,17.35
2022-12-27T15:57:31.249Z,42.58
2022-12-27T16:00:15.719Z,25.17
2022-12-27T16:02:53.636Z,16.60
2022-12-27T16:05:47.422Z,32.40
2022-12-27T16:08:32.942Z,27.25
2022-12-27T16:11:08.435Z,24.23
2022-12-27T16:13:47.478Z,22.02
2022-12-27T16:16:52.567Z,24.13
2022-12-27T16:20:05.031Z,20.55
2022-12-27T16:22:39.813Z,23.80
2022-12-27T16:25:31.823Z,27.10
2022-12-27T16:28:07.737Z,25.60
2022-12-27T16:30:44.571Z,18.45
2022-12-27T16:33:30.802Z,12.38
2022-12-27T16:36:20.645Z,11.35
2022-12-27T16:39:31.012Z,11.32
2022-12-27T16:42:06.553Z,14.23
2022-12-27T16:44:57.139Z,11.07
2022-12-27T16:48:04.831Z,15.43
2022-12-27T16:50:52.223Z,10.93
2022-12-27T16:53:54.196Z,10.40
2022-12-27T16:56:28.276Z,8.05
2022-12-27T16:59:01.440Z,5.22
2022-12-27T17:01:57.569Z,10.23
2022-12-27T17:04:53.886Z,17.77
2022-12-27T17:07:49.620Z,18.83
2022-12-27T17:10:44.530Z,19.73
2022-12-27T17:13:20.813Z,20.38
2022-12-27T17:16:00.435Z,29.55
2022-12-27T17:18:36.588Z,19.50
2022-12-27T17:21:14.073Z,16.25
2022-12-27T17:23:48.319Z,10.38
2022-12-27T17:26:53.120Z,11.98
2022-12-27T17:29:52.984Z,37.05
2022-12-27T17:32:40.495Z,58.58
2022-12-27T17:35:25.734Z,47.55
2022-12-27T17:38:17.023Z,74.60
2022-12-27T17:41:00.891Z,70.43
2022-12-27T17:44:00.931Z,59.10
2022-12-27T17:46:43.435Z,50.35
2022-12-27T17:49:17.059Z,33.38
2022-12-27T17:52:04.028Z,29.40
2022-12-27T17:54:56.806Z,24.15
2022-12-27T17:57:47.384Z,26.75
2022-12-27T18:00:23.243Z,42.83
2022-12-27T18:02:58.814Z,54.83
2022-12-27T18:05:36.186Z,45.03
2022-12-27T18:08:19.984Z,31.05
2022-12-27T18:10:52.413Z,41.30
2022-12-27T18:13:27.217Z,30.45
2022-12-27T18:16:03.182Z,28.00
2022-12-27T18:18:35.627Z,27.20
2022-12-27T18:21:21.308Z,33.95
2022-12-27T18:23:54.696Z,75.32
2022-12-27T18:26:37.840Z,67.20
2022-12-27T18:29:11.328Z,64.82
2022-12-27T18:31:48.890Z,74.88
2022-12-27T18:34:26.792Z,86.00
2022-12-27T18:37:02.810Z,67.20
2022-12-27T18:39:38.399Z,64.97
2022-12-27T18:42:17.408Z,65.05
2022-12-27T18:44:54.645Z,70.78
2022-12-27T18:47:28.168Z,71.00
2022-12-27T18:50:03.172Z,75.78
2022-12-27T18:52:40.343Z,67.00
2022-12-27T18:55:17.717Z,52.05
2022-12-27T18:58:03.078Z,44.58
2022-12-27T19:00:47.809Z,44.60
2022-12-27T19:03:20.823Z,54.50
2022-12-27T19:06:00.867Z,42.08
2022-12-27T19:08:37.502Z,43.15
2022-12-27T19:11:19.635Z,28.98
2022-12-27T19:13:53.933Z,28.40
2022-12-27T19:16:28.543Z,20.00
2022-12-27T19:19:07.036Z,21.25
2022-12-27T19:21:39.749Z,21.13
2022-12-27T19:24:32.018Z,19.08
2022-12-27T19:27:21.845Z,23.30
2022-12-27T19:32:32.318Z,35.90
2022-12-27T19:35:05.312Z,47.38
2022-12-27T19:37:37.729Z,48.03
2022-12-27T19:40:14.933Z,53.88
2022-12-27T19:42:47.295Z,42.53
2022-12-27T19:45:19.973Z,44.78
2022-12-27T19:47:54.515Z,44.63
2022-12-27T19:50:26.861Z,46.83
2022-12-27T19:52:59.473Z,56.75
2022-12-27T19:55:35.496Z,34.60
2022-12-27T19:58:17.840Z,36.13
2022-12-27T20:00:50.174Z,36.85
2022-12-27T20:03:22.686Z,30.00
2022-12-27T20:06:13.026Z,42.17
2022-12-27T20:08:49.915Z,36.92
2022-12-27T20:11:23.694Z,31.65
2022-12-27T20:13:56.066Z,40.08
2022-12-27T20:16:28.393Z,32.22
2022-12-27T20:19:01.820Z,35.60
2022-12-27T20:21:34.151Z,39.15
2022-12-27T20:24:09.364Z,39.47
2022-12-27T20:26:42.981Z,39.72
2022-12-27T20:29:15.542Z,30.67
2022-12-27T20:31:49.349Z,35.22
2022-12-27T20:34:21.847Z,23.90
2022-12-27T20:36:54.740Z,39.58
2022-12-27T20:39:27.153Z,46.22
2022-12-27T20:42:01.025Z,24.83
2022-12-27T20:44:33.527Z,18.45
2022-12-27T20:47:05.892Z,16.02
2022-12-27T20:49:38.809Z,36.63
2022-12-27T20:52:11.116Z,38.95
2022-12-27T20:54:43.518Z,29.15
2022-12-27T20:57:16.507Z,23.15
2022-12-27T20:59:48.861Z,27.38
2022-12-27T21:02:21.353Z,22.40
2022-12-27T21:04:53.916Z,27.80
2022-12-27T21:07:26.451Z,18.83
2022-12-27T21:09:58.838Z,16.80
2022-12-27T21:12:32.046Z,19.77
2022-12-27T21:15:07.432Z,21.90
2022-12-27T21:17:39.728Z,18.98
2022-12-27T21:20:12.749Z,20.98
2022-12-27T21:22:45.079Z,29.00
2022-12-27T21:25:17.588Z,37.08
2022-12-27T21:27:50.536Z,39.03
2022-12-27T21:30:22.938Z,29.90
2022-12-27T21:32:55.231Z,30.05
2022-12-27T21:35:27.560Z,29.23
2022-12-27T21:37:59.886Z,29.25
2022-12-27T21:40:32.652Z,44.95
2022-12-27T21:43:05.639Z,43.35
2022-12-27T21:45:38.005Z,44.95
2022-12-27T21:48:10.362Z,38.90
2022-12-27T21:50:42.985Z,22.48
2022-12-27T21:53:15.964Z,31.67
2022-12-27T21:55:48.367Z,35.35
2022-12-27T21:58:22.447Z,34.15
2022-12-27T22:01:03.637Z,30.63
2022-12-27T22:03:40.547Z,15.63
2022-12-27T22:06:14.474Z,32.35
2022-12-27T22:08:48.669Z,31.40
2022-12-27T22:11:22.653Z,30.38
2022-12-27T22:13:56.066Z,24.08
2022-12-27T22:16:30.499Z,24.50
2022-12-27T22:19:05.328Z,14.27
2022-12-27T22:21:39.155Z,19.33
2022-12-27T22:24:12.567Z,15.77
2022-12-27T22:26:44.989Z,8.02
2022-12-27T22:29:18.011Z,5.35
2022-12-27T22:31:50.405Z,3.95
2022-12-27T22:34:22.725Z,5.28
2022-12-27T22:36:55.332Z,32.42
2022-12-27T22:39:28.349Z,20.38
2022-12-27T22:42:00.839Z,6.40
2022-12-27T22:44:34.148Z,5.35
2022-12-27T22:47:25.795Z,5.05
2022-12-27T22:49:58.826Z,7.07
2022-12-27T22:52:31.510Z,5.78
2022-12-27T22:55:07.189Z,6.68
2022-12-27T22:57:39.941Z,5.43
2022-12-27T23:00:14.393Z,6.68
2022-12-27T23:02:46.907Z,5.20
2022-12-27T23:05:19.266Z,6.13
2022-12-27T23:08:04.124Z,3.97
2022-12-27T23:10:39.123Z,4.63
2022-12-27T23:13:11.469Z,4.63
2022-12-27T23:15:44.450Z,5.40
2022-12-27T23:18:16.824Z,3.75
2022-12-27T23:21:19.232Z,4.05
2022-12-27T23:23:41.479Z,6.47
2022-12-27T23:26:20.408Z,7.20
2022-12-27T23:28:52.971Z,6.28
2022-12-27T23:31:26.445Z,6.47
2022-12-27T23:33:58.870Z,8.77
2022-12-27T23:36:31.667Z,8.77
2022-12-27T23:39:04.367Z,4.93
2022-12-27T23:41:36.696Z,6.28
2022-12-27T23:44:09.079Z,7.50
2022-12-27T23:46:42.134Z,5.13
2022-12-27T23:49:15.320Z,8.18
2022-12-27T23:51:47.608Z,9.75
2022-12-27T23:54:20.154Z,9.10
2022-12-27T23:56:52.476Z,7.28
2022-12-27T23:59:24.845Z,5.38
